This is the latest recevied weather packets stored in our database for station/object KN1OBI-13. If no packets are shown the sender has not sent any weather packets the latest 10 day(s).
| Time | Temp. | Humidity | Pressure | Rain* | Wind** | Luminosity | Snow |
|---|---|---|---|---|---|---|---|
| 1777262301 | 5.56° C | 65% | 1001.3 hPa | 0 mm | - | - | - |
| 1777261701 | 5.56° C | 64% | 1001.2 hPa | 0 mm | - | - | - |
| 1777261101 | 6.11° C | 63% | 1001 hPa | 0 mm | - | - | - |
| 1777259901 | 6.67° C | 61% | 1001 hPa | 0 mm | - | - | - |
| 1777259304 | 6.67° C | 60% | 1001.1 hPa | 0 mm | - | - | - |
| 1777256300 | 7.78° C | 55% | 1001 hPa | 0 mm | - | - | - |
| 1777255701 | 7.78° C | 55% | 1001 hPa | 0 mm | - | - | - |
| 1777255101 | 8.33° C | 53% | 1001 hPa | 0 mm | - | - | - |
| 1777253901 | 9.44° C | 50% | 1000.9 hPa | 0 mm | - | - | - |
| 1777252701 | 10° C | 47% | 1001 hPa | 0 mm | - | - | - |
| 1777252101 | 10° C | 45% | 1000.7 hPa | 0 mm | - | - | - |
| 1777251501 | 10.56° C | 44% | 1000.9 hPa | 0 mm | - | - | - |
| 1777249701 | 11.11° C | 42% | 1000.4 hPa | 0 mm | - | - | - |
| 1777249103 | 11.67° C | 41% | 1000.4 hPa | 0 mm | - | - | - |
| 1777248500 | 11.67° C | 41% | 1000.1 hPa | 0 mm | - | - | - |
| 1777247900 | 12.22° C | 41% | 1000 hPa | 0 mm | - | - | - |
| 1777246700 | 13.33° C | 38% | 999.7 hPa | 0 mm | - | - | - |
| 1777244301 | 15° C | 34% | 999.4 hPa | 0 mm | - | - | - |
| 1777243101 | 16.67° C | 31% | 999.4 hPa | 0 mm | - | - | - |
| 1777241901 | 18.89° C | 27% | 999.4 hPa | 0 mm | - | - | - |
| 1777240100 | 20.56° C | 27% | 999.3 hPa | 0 mm | - | - | - |
| 1777238901 | 20.56° C | 26% | 999.2 hPa | 0 mm | - | - | - |
| 1777232901 | 20.56° C | 25% | 998.9 hPa | 0 mm | - | - | - |
| 1777232301 | 20.56° C | 27% | 998.9 hPa | 0 mm | - | - | - |
| 1777220901 | 15° C | 34% | 999.1 hPa | 0 mm | - | - | - |
* Rain latest hour (hover to see other rain measurements)
** Current wind speed in m/s (hover to see current wind gust speed)